Terminal Aerodrome Forecast
Issued by NWS

Home | Current Version | Previous Version | Text Only | Print | Product List | Glossary On
Versions: 1 2 3 4 5 6 7 8 9 10 11 12
000
FTUS44 KOUN 252320
TAFWWR
TAF
KWWR 252320Z 2600/2624 17015G22KT P6SM SCT250
     FM260100 19012KT P6SM SCT250
     FM260800 33010KT P6SM SCT250
      TEMPO 2609/2613 BKN020=

USA.gov is the U.S. government's official web portal to all federal, state and local government web resources and services.